createdAt,value
2023-05-23T00:01:02.244Z,100592.88
2023-05-23T00:03:31.174Z,100597.69
2023-05-23T00:05:59.023Z,100590.59
2023-05-23T00:08:25.964Z,100586.53
2023-05-23T00:10:52.403Z,100591.09
2023-05-23T00:13:18.936Z,100582.94
2023-05-23T00:15:45.372Z,100585.13
2023-05-23T00:18:11.891Z,100579.59
2023-05-23T00:20:40.847Z,100582.09
2023-05-23T00:23:08.792Z,100585.69
2023-05-23T00:25:35.959Z,100587.16
2023-05-23T00:28:03.965Z,100587.25
2023-05-23T00:30:32.001Z,100581.59
2023-05-23T00:32:58.974Z,100580.13
2023-05-23T00:35:25.773Z,100581.94
2023-05-23T00:37:52.379Z,100581.44
2023-05-23T00:40:19.147Z,100576.28
2023-05-23T00:42:46.468Z,100574.25
2023-05-23T00:45:12.924Z,100583.34
2023-05-23T00:47:42.937Z,100582.72
2023-05-23T00:50:12.338Z,100574.22
2023-05-23T00:52:39.434Z,100572.25
2023-05-23T00:55:06.420Z,100585.28
2023-05-23T00:57:34.820Z,100580.53
2023-05-23T01:00:02.273Z,100575.59
2023-05-23T01:02:32.299Z,100567.53
2023-05-23T01:04:59.842Z,100564.63
2023-05-23T01:07:26.737Z,100569.25
2023-05-23T01:09:53.238Z,100569.25
2023-05-23T01:12:34.212Z,100576.78
2023-05-23T01:15:05.024Z,100573.50
2023-05-23T01:17:50.715Z,100571.84
2023-05-23T01:20:24.140Z,100567.50
2023-05-23T01:23:02.490Z,100571.47
2023-05-23T01:25:38.620Z,100566.63
2023-05-23T01:28:12.512Z,100578.09
2023-05-23T01:30:41.853Z,100572.38
2023-05-23T01:33:09.653Z,100574.00
2023-05-23T01:35:36.917Z,100562.84
2023-05-23T01:38:03.438Z,100565.19
2023-05-23T01:40:30.011Z,100563.50
2023-05-23T01:43:00.095Z,100561.28
2023-05-23T01:45:28.141Z,100564.13
2023-05-23T01:47:57.063Z,100562.97
2023-05-23T01:50:24.688Z,100567.34
2023-05-23T01:52:52.403Z,100575.00
2023-05-23T01:55:22.797Z,100579.56
2023-05-23T01:57:55.415Z,100575.78
2023-05-23T02:00:22.179Z,100578.19
2023-05-23T02:02:48.812Z,100572.97
2023-05-23T02:05:15.485Z,100572.19
2023-05-23T02:07:41.954Z,100577.00
2023-05-23T02:10:09.710Z,100579.50
2023-05-23T02:12:36.521Z,100573.41
2023-05-23T02:15:03.176Z,100579.50
2023-05-23T02:17:30.681Z,100566.59
2023-05-23T02:19:57.340Z,100575.28
2023-05-23T02:22:26.867Z,100571.44
2023-05-23T02:24:53.424Z,100574.66
2023-05-23T02:27:20.007Z,100576.56
2023-05-23T02:29:46.633Z,100571.06
2023-05-23T02:32:13.199Z,100575.63
2023-05-23T02:34:40.305Z,100575.84
2023-05-23T02:37:07.057Z,100579.44
2023-05-23T02:39:36.109Z,100583.53
2023-05-23T02:42:02.875Z,100577.00
2023-05-23T02:44:29.344Z,100578.09
2023-05-23T02:46:55.898Z,100588.41
2023-05-23T02:49:22.529Z,100579.72
2023-05-23T02:51:49.076Z,100578.72
2023-05-23T02:54:16.014Z,100580.59
2023-05-23T02:56:42.470Z,100578.44
2023-05-23T02:59:08.931Z,100581.69
2023-05-23T03:01:35.606Z,100580.44
2023-05-23T03:04:02.137Z,100580.31
2023-05-23T03:06:28.811Z,100582.38
2023-05-23T03:08:55.543Z,100576.66
2023-05-23T03:11:22.696Z,100577.50
2023-05-23T03:13:49.409Z,100575.06
2023-05-23T03:16:15.903Z,100575.28
2023-05-23T03:18:42.359Z,100578.47
2023-05-23T03:21:09.625Z,100584.19
2023-05-23T03:23:36.626Z,100584.56
2023-05-23T03:26:03.920Z,100578.81
2023-05-23T03:28:33.572Z,100579.78
2023-05-23T03:31:00.002Z,100575.56
2023-05-23T03:33:26.610Z,100578.63
2023-05-23T03:35:53.100Z,100587.47
2023-05-23T03:38:19.629Z,100582.66
2023-05-23T03:40:46.261Z,100588.03
2023-05-23T03:43:12.772Z,100590.06
2023-05-23T03:45:39.517Z,100587.84
2023-05-23T03:48:06.243Z,100588.03
2023-05-23T03:50:32.802Z,100586.66
2023-05-23T03:52:59.253Z,100591.22
2023-05-23T03:55:25.742Z,100597.41
2023-05-23T03:57:52.279Z,100596.44
2023-05-23T04:00:19.466Z,100594.88
2023-05-23T04:02:46.627Z,100594.06
2023-05-23T04:05:13.473Z,100592.00
2023-05-23T04:07:41.431Z,100593.19
2023-05-23T04:10:08.791Z,100597.19
2023-05-23T04:12:35.571Z,100603.44
2023-05-23T04:15:02.493Z,100600.09
2023-05-23T04:17:30.641Z,100591.53
2023-05-23T04:19:58.005Z,100589.03
2023-05-23T04:22:24.489Z,100594.41
2023-05-23T04:24:51.064Z,100593.34
2023-05-23T04:27:17.605Z,100596.72
2023-05-23T04:29:44.266Z,100597.66
2023-05-23T04:32:11.383Z,100605.09
2023-05-23T04:34:38.014Z,100606.97
2023-05-23T04:37:04.728Z,100598.50
2023-05-23T04:39:31.196Z,100596.09
2023-05-23T04:41:57.855Z,100595.75
2023-05-23T04:44:24.375Z,100600.84
2023-05-23T04:46:50.833Z,100602.41
2023-05-23T04:49:17.297Z,100598.53
2023-05-23T04:51:44.052Z,100604.88
2023-05-23T04:54:10.573Z,100600.84
2023-05-23T04:56:37.207Z,100596.78
2023-05-23T04:59:03.663Z,100603.09
2023-05-23T05:01:31.302Z,100607.22
2023-05-23T05:03:57.965Z,100606.41
2023-05-23T05:06:24.831Z,100603.72
2023-05-23T05:08:51.318Z,100608.63
2023-05-23T05:11:17.825Z,100616.63
2023-05-23T05:13:44.288Z,100608.66
2023-05-23T05:16:13.829Z,100608.09
2023-05-23T05:18:40.368Z,100602.16
2023-05-23T05:21:08.136Z,100610.06
2023-05-23T05:23:36.206Z,100616.06
2023-05-23T05:26:03.271Z,100617.41
2023-05-23T05:28:29.759Z,100610.88
2023-05-23T05:30:56.842Z,100615.06
2023-05-23T05:33:28.313Z,100613.50
2023-05-23T05:35:54.848Z,100610.88
2023-05-23T05:38:21.698Z,100607.66
2023-05-23T05:40:48.141Z,100597.28
2023-05-23T05:43:15.114Z,100608.44
2023-05-23T05:45:41.816Z,100602.53
2023-05-23T05:48:08.492Z,100605.00
2023-05-23T05:50:35.081Z,100604.88
2023-05-23T05:53:01.659Z,100607.66
2023-05-23T05:55:28.232Z,100616.28
2023-05-23T05:57:54.745Z,100616.28
2023-05-23T06:00:22.038Z,100618.69
2023-05-23T06:02:48.808Z,100617.56
2023-05-23T06:05:16.621Z,100624.47
2023-05-23T06:07:44.053Z,100615.13
2023-05-23T06:10:14.067Z,100614.31
2023-05-23T06:12:40.957Z,100613.75
2023-05-23T06:15:09.490Z,100612.81
2023-05-23T06:17:36.128Z,100619.59
2023-05-23T06:20:04.994Z,100616.69
2023-05-23T06:22:31.696Z,100618.81
2023-05-23T06:24:58.183Z,100625.44
2023-05-23T06:27:25.541Z,100623.00
2023-05-23T06:29:52.088Z,100613.03
2023-05-23T06:32:25.108Z,100613.44
2023-05-23T06:34:51.663Z,100615.56
2023-05-23T06:37:18.126Z,100610.75
2023-05-23T06:39:44.614Z,100621.09
2023-05-23T06:42:11.375Z,100615.47
2023-05-23T06:44:37.982Z,100621.41
2023-05-23T06:47:04.623Z,100625.59
2023-05-23T06:49:31.122Z,100622.31
2023-05-23T06:51:57.651Z,100613.75
2023-05-23T06:54:24.182Z,100625.31
2023-05-23T06:56:50.998Z,100619.78
2023-05-23T06:59:17.638Z,100617.25
2023-05-23T07:01:44.204Z,100621.22
2023-05-23T07:04:12.108Z,100620.41
2023-05-23T07:06:39.914Z,100619.91
2023-05-23T07:09:06.644Z,100615.72
2023-05-23T07:11:33.196Z,100613.50
2023-05-23T07:13:59.704Z,100612.69
2023-05-23T07:16:26.519Z,100611.22
2023-05-23T07:18:53.170Z,100606.81
2023-05-23T07:21:19.701Z,100606.72
2023-05-23T07:23:46.436Z,100606.31
2023-05-23T07:26:13.084Z,100605.56
2023-05-23T07:28:39.646Z,100606.50
2023-05-23T07:31:15.798Z,100603.19
2023-05-23T07:33:42.309Z,100606.09
2023-05-23T07:36:11.459Z,100602.91
2023-05-23T07:38:37.968Z,100602.31
2023-05-23T07:41:11.569Z,100596.72
2023-05-23T07:43:39.487Z,100607.19
2023-05-23T07:46:06.268Z,100601.19
2023-05-23T07:48:33.406Z,100598.19
2023-05-23T07:50:59.887Z,100597.59
2023-05-23T07:53:26.753Z,100590.09
2023-05-23T07:55:53.344Z,100593.78
2023-05-23T07:58:19.792Z,100591.50
2023-05-23T08:00:46.400Z,100594.47
2023-05-23T08:03:13.422Z,100601.78
2023-05-23T08:05:40.057Z,100600.72
2023-05-23T08:08:06.641Z,100595.69
2023-05-23T08:10:33.122Z,100590.81
2023-05-23T08:13:00.917Z,100589.06
2023-05-23T08:15:28.809Z,100590.41
2023-05-23T08:17:57.267Z,100582.03
2023-05-23T08:20:30.633Z,100585.22
2023-05-23T08:23:03.444Z,100588.09
2023-05-23T08:25:30.982Z,100579.47
2023-05-23T08:27:58.659Z,100593.16
2023-05-23T08:30:25.995Z,100584.19
2023-05-23T08:32:53.434Z,100590.66
2023-05-23T08:35:21.090Z,100580.78
2023-05-23T08:37:48.032Z,100583.88
2023-05-23T08:40:22.000Z,100587.97
2023-05-23T08:42:49.860Z,100586.19
2023-05-23T08:45:17.467Z,100595.56
2023-05-23T08:47:45.788Z,100581.31
2023-05-23T08:50:14.432Z,100582.63
2023-05-23T08:52:58.531Z,100586.03
2023-05-23T08:55:27.275Z,100582.13
2023-05-23T08:57:55.172Z,100585.72
2023-05-23T09:00:23.429Z,100587.03
2023-05-23T09:02:50.125Z,100584.78
2023-05-23T09:05:16.967Z,100584.59
2023-05-23T09:07:47.945Z,100588.03
2023-05-23T09:10:20.269Z,100587.13
2023-05-23T09:12:47.356Z,100587.75
2023-05-23T09:15:13.951Z,100586.81
2023-05-23T09:17:40.700Z,100583.69
2023-05-23T09:20:15.209Z,100580.84
2023-05-23T09:22:47.936Z,100586.78
2023-05-23T09:25:15.358Z,100584.66
2023-05-23T09:27:43.245Z,100578.38
2023-05-23T09:30:13.918Z,100576.56
2023-05-23T09:32:40.590Z,100573.34
2023-05-23T09:35:07.965Z,100567.03
2023-05-23T09:37:35.225Z,100571.56
2023-05-23T09:40:06.556Z,100565.41
2023-05-23T09:42:34.126Z,100568.06
2023-05-23T09:45:03.791Z,100574.34
2023-05-23T09:47:31.974Z,100565.63
2023-05-23T09:49:58.964Z,100578.09
2023-05-23T09:52:26.512Z,100561.88
2023-05-23T09:54:54.305Z,100570.72
2023-05-23T09:57:23.300Z,100565.47
2023-05-23T09:59:57.117Z,100561.84
2023-05-23T10:02:55.493Z,100564.97
2023-05-23T10:05:38.735Z,100567.81
2023-05-23T10:08:12.084Z,100560.75
2023-05-23T10:10:58.525Z,100560.59
2023-05-23T10:13:27.150Z,100558.47
2023-05-23T10:16:00.232Z,100563.03
2023-05-23T10:18:31.625Z,100559.41
2023-05-23T10:21:06.733Z,100555.56
2023-05-23T10:23:34.080Z,100559.88
2023-05-23T10:26:01.159Z,100553.03
2023-05-23T10:28:28.052Z,100561.75
2023-05-23T10:30:55.532Z,100546.75
2023-05-23T10:33:23.131Z,100546.94
2023-05-23T10:36:19.483Z,100544.25
2023-05-23T10:39:09.393Z,100544.28
2023-05-23T10:41:48.838Z,100541.47
2023-05-23T10:44:28.095Z,100534.53
2023-05-23T10:47:01.723Z,100525.00
2023-05-23T10:49:51.693Z,100531.22
2023-05-23T10:52:18.590Z,100526.63
2023-05-23T10:54:48.910Z,100531.19
2023-05-23T10:57:26.939Z,100524.91
2023-05-23T10:59:57.691Z,100522.28
2023-05-23T11:02:29.307Z,100523.38
2023-05-23T11:05:22.893Z,100520.00
2023-05-23T11:08:29.619Z,100513.84
2023-05-23T11:11:08.086Z,100512.03
2023-05-23T11:14:02.965Z,100508.44
2023-05-23T11:16:43.767Z,100507.16
2023-05-23T11:19:19.673Z,100504.38
2023-05-23T11:21:54.165Z,100504.44
2023-05-23T11:24:21.694Z,100501.38
2023-05-23T11:27:00.705Z,100503.09
2023-05-23T11:29:35.909Z,100496.06
2023-05-23T11:32:16.017Z,100492.59
2023-05-23T11:34:47.420Z,100494.78
2023-05-23T11:37:14.554Z,100490.31
2023-05-23T11:39:42.417Z,100494.22
2023-05-23T11:42:09.332Z,100497.84
2023-05-23T11:44:35.987Z,100495.97
2023-05-23T11:47:05.136Z,100488.47
2023-05-23T11:49:43.391Z,100491.81
2023-05-23T11:52:10.338Z,100488.25
2023-05-23T11:54:40.302Z,100485.13
2023-05-23T11:57:07.388Z,100476.41
2023-05-23T11:59:36.384Z,100478.34
2023-05-23T12:02:06.945Z,100468.53
2023-05-23T12:04:35.732Z,100472.00
2023-05-23T12:07:06.865Z,100464.03
2023-05-23T12:09:42.631Z,100463.91
2023-05-23T12:12:11.640Z,100460.56
2023-05-23T12:14:44.451Z,100464.09
2023-05-23T12:17:14.980Z,100457.63
2023-05-23T12:19:46.513Z,100456.84
2023-05-23T12:22:16.329Z,100455.91
2023-05-23T12:24:55.356Z,100455.78
2023-05-23T12:27:35.680Z,100453.25
2023-05-23T12:30:18.310Z,100445.59
2023-05-23T12:32:51.173Z,100442.91
2023-05-23T12:35:17.867Z,100447.22
2023-05-23T12:37:46.341Z,100439.94
2023-05-23T12:40:20.623Z,100435.66
2023-05-23T12:42:55.291Z,100426.06
2023-05-23T12:45:48.199Z,100428.88
2023-05-23T12:48:15.040Z,100433.53
2023-05-23T12:50:41.711Z,100429.13
2023-05-23T12:53:08.580Z,100428.94
2023-05-23T12:55:40.158Z,100429.03
2023-05-23T12:58:10.188Z,100422.66
2023-05-23T13:00:39.690Z,100421.56
2023-05-23T13:03:12.375Z,100426.19
2023-05-23T13:05:39.434Z,100422.59
2023-05-23T13:08:12.701Z,100426.16
2023-05-23T13:10:45.852Z,100427.00
2023-05-23T13:13:12.831Z,100422.50
2023-05-23T13:15:39.539Z,100421.88
2023-05-23T13:18:06.846Z,100411.91
2023-05-23T13:20:40.419Z,100415.38
2023-05-23T13:23:15.505Z,100412.88
2023-05-23T13:25:42.663Z,100409.22
2023-05-23T13:28:10.064Z,100412.41
2023-05-23T13:30:36.933Z,100415.13
2023-05-23T13:33:03.770Z,100404.69
2023-05-23T13:35:30.546Z,100396.09
2023-05-23T13:37:57.110Z,100402.22
2023-05-23T13:40:23.967Z,100398.50
2023-05-23T13:42:52.092Z,100392.31
2023-05-23T13:45:20.363Z,100387.94
2023-05-23T13:47:47.599Z,100390.81
2023-05-23T13:50:14.857Z,100397.91
2023-05-23T13:52:45.681Z,100391.84
2023-05-23T13:55:14.660Z,100392.94
2023-05-23T13:57:41.544Z,100392.13
2023-05-23T14:00:09.048Z,100386.91
2023-05-23T14:02:36.088Z,100385.16
2023-05-23T14:05:03.357Z,100383.09
2023-05-23T14:07:36.304Z,100384.78
2023-05-23T14:10:05.315Z,100378.06
2023-05-23T14:12:34.949Z,100380.91
2023-05-23T14:15:01.721Z,100371.88
2023-05-23T14:17:28.458Z,100376.06
2023-05-23T14:19:55.091Z,100374.16
2023-05-23T14:22:22.056Z,100367.28
2023-05-23T14:24:51.122Z,100367.22
2023-05-23T14:27:19.014Z,100364.88
2023-05-23T14:29:46.846Z,100362.22
2023-05-23T14:32:13.847Z,100363.00
2023-05-23T14:34:40.539Z,100360.97
2023-05-23T14:37:07.288Z,100362.78
2023-05-23T14:39:44.656Z,100353.19
2023-05-23T14:42:11.198Z,100346.94
2023-05-23T14:44:37.905Z,100346.88
2023-05-23T14:47:04.834Z,100344.97
2023-05-23T14:49:31.459Z,100335.31
2023-05-23T14:52:01.203Z,100333.53
2023-05-23T14:54:30.733Z,100327.41
2023-05-23T14:56:57.268Z,100328.47
2023-05-23T14:59:24.164Z,100334.81
2023-05-23T15:01:51.041Z,100336.56
2023-05-23T15:04:17.784Z,100326.75
2023-05-23T15:06:49.957Z,100325.81
2023-05-23T15:09:18.073Z,100333.06
2023-05-23T15:11:46.811Z,100329.59
2023-05-23T15:14:13.531Z,100320.59
2023-05-23T15:16:40.204Z,100316.84
2023-05-23T15:19:07.201Z,100322.09
2023-05-23T15:21:34.012Z,100319.47
2023-05-23T15:24:01.166Z,100316.91
2023-05-23T15:26:28.394Z,100314.41
2023-05-23T15:28:55.683Z,100328.53
2023-05-23T15:31:22.503Z,100323.09
2023-05-23T15:33:49.499Z,100324.00
2023-05-23T15:36:16.249Z,100321.34
2023-05-23T15:38:43.821Z,100325.81
2023-05-23T15:41:11.075Z,100332.81
2023-05-23T15:43:37.855Z,100324.69
2023-05-23T15:46:05.034Z,100332.41
2023-05-23T15:48:31.651Z,100327.38
2023-05-23T15:50:58.297Z,100331.75
2023-05-23T15:53:24.847Z,100319.34
2023-05-23T15:55:51.372Z,100316.69
2023-05-23T15:58:17.898Z,100322.91
2023-05-23T16:00:44.624Z,100318.56
2023-05-23T16:03:11.183Z,100322.94
2023-05-23T16:05:37.870Z,100320.19
2023-05-23T16:08:04.725Z,100321.94
2023-05-23T16:10:31.287Z,100322.94
2023-05-23T16:12:57.918Z,100315.97
2023-05-23T16:15:24.451Z,100321.25
2023-05-23T16:17:51.029Z,100318.53
2023-05-23T16:20:17.698Z,100320.19
2023-05-23T16:22:45.760Z,100317.53
2023-05-23T16:25:12.348Z,100321.91
2023-05-23T16:27:40.487Z,100315.72
2023-05-23T16:30:07.919Z,100317.41
2023-05-23T16:32:34.803Z,100320.84
2023-05-23T16:35:01.574Z,100320.81
2023-05-23T16:37:28.135Z,100322.66
2023-05-23T16:39:54.681Z,100318.22
2023-05-23T16:42:21.390Z,100322.63
2023-05-23T16:44:48.099Z,100321.69
2023-05-23T16:47:14.747Z,100325.16
2023-05-23T16:49:41.281Z,100331.28
2023-05-23T16:52:07.820Z,100325.91
2023-05-23T16:54:34.364Z,100332.09
2023-05-23T16:57:05.720Z,100329.34
2023-05-23T16:59:32.693Z,100333.75
2023-05-23T17:01:59.476Z,100335.47
2023-05-23T17:04:26.014Z,100340.69
2023-05-23T17:06:52.580Z,100343.41
2023-05-23T17:09:21.278Z,100342.38
2023-05-23T17:11:48.452Z,100344.03
2023-05-23T17:14:15.098Z,100336.88
2023-05-23T17:16:41.858Z,100338.56
2023-05-23T17:19:08.625Z,100342.88
2023-05-23T17:21:35.203Z,100338.50
2023-05-23T17:24:02.260Z,100337.69
2023-05-23T17:26:28.791Z,100335.97
2023-05-23T17:28:55.301Z,100338.59
2023-05-23T17:31:21.950Z,100331.44
2023-05-23T17:33:48.495Z,100336.63
2023-05-23T17:36:15.003Z,100334.72
2023-05-23T17:38:41.933Z,100329.38
2023-05-23T17:41:08.614Z,100336.50
2023-05-23T17:43:35.316Z,100330.22
2023-05-23T17:46:02.046Z,100330.94
2023-05-23T17:48:45.719Z,100330.88
2023-05-23T17:51:14.212Z,100329.97
2023-05-23T17:53:41.717Z,100324.59
2023-05-23T17:56:09.393Z,100330.78
2023-05-23T17:58:37.761Z,100324.50
2023-05-23T18:01:05.890Z,100328.72
2023-05-23T18:03:32.482Z,100325.91
2023-05-23T18:05:59.073Z,100330.06
2023-05-23T18:08:25.727Z,100325.38
2023-05-23T18:10:52.567Z,100331.47
2023-05-23T18:13:19.250Z,100341.00
2023-05-23T18:15:45.979Z,100336.50
2023-05-23T18:18:12.852Z,100332.00
2023-05-23T18:20:39.794Z,100334.28
2023-05-23T18:23:06.656Z,100333.22
2023-05-23T18:25:33.483Z,100329.69
2023-05-23T18:28:01.897Z,100328.78
2023-05-23T18:30:29.416Z,100333.88
2023-05-23T18:32:56.403Z,100336.22
2023-05-23T18:35:23.671Z,100338.63
2023-05-23T18:37:50.287Z,100345.63
2023-05-23T18:40:17.145Z,100349.06
2023-05-23T18:42:43.685Z,100355.03
2023-05-23T18:45:10.772Z,100345.97
2023-05-23T18:47:37.299Z,100349.38
2023-05-23T18:50:03.987Z,100354.41
2023-05-23T18:52:33.519Z,100356.09
2023-05-23T18:55:00.080Z,100358.72
2023-05-23T18:57:26.779Z,100362.19
2023-05-23T18:59:53.417Z,100362.19
2023-05-23T19:02:20.220Z,100365.56
2023-05-23T19:04:46.911Z,100362.81
2023-05-23T19:07:13.492Z,100367.13
2023-05-23T19:09:40.082Z,100372.16
2023-05-23T19:12:06.858Z,100380.53
2023-05-23T19:14:33.408Z,100382.22
2023-05-23T19:16:59.961Z,100385.66
2023-05-23T19:19:29.278Z,100389.16
2023-05-23T19:21:57.407Z,100396.13
2023-05-23T19:24:23.970Z,100397.91
2023-05-23T19:26:50.542Z,100391.75
2023-05-23T19:29:17.051Z,100403.25
2023-05-23T19:31:43.840Z,100408.63
2023-05-23T19:34:10.746Z,100408.63
2023-05-23T19:36:37.264Z,100408.44
2023-05-23T19:39:04.575Z,100409.88
2023-05-23T19:41:32.797Z,100417.34
2023-05-23T19:43:59.775Z,100414.41
2023-05-23T19:46:29.652Z,100413.38
2023-05-23T19:48:57.808Z,100428.00
2023-05-23T19:51:27.293Z,100437.50
2023-05-23T19:53:56.638Z,100450.19
2023-05-23T19:56:23.756Z,100449.16
2023-05-23T19:58:50.183Z,100457.06
2023-05-23T20:01:16.646Z,100468.28
2023-05-23T20:03:43.113Z,100465.72
2023-05-23T20:06:09.746Z,100469.06
2023-05-23T20:08:36.181Z,100469.66
2023-05-23T20:11:02.625Z,100469.72
2023-05-23T20:13:29.864Z,100466.44
2023-05-23T20:15:56.833Z,100466.06
2023-05-23T20:18:23.348Z,100468.97
2023-05-23T20:20:50.191Z,100477.75
2023-05-23T20:23:16.716Z,100481.22
2023-05-23T20:25:43.499Z,100481.22
2023-05-23T20:28:10.534Z,100481.97
2023-05-23T20:30:37.372Z,100487.03
2023-05-23T20:33:04.298Z,100488.53
2023-05-23T20:35:31.029Z,100491.00
2023-05-23T20:37:58.563Z,100495.44
2023-05-23T20:40:26.906Z,100495.44
2023-05-23T20:42:53.588Z,100499.50
2023-05-23T20:45:20.413Z,100507.38
2023-05-23T20:47:47.474Z,100500.53
2023-05-23T20:50:14.906Z,100498.63
2023-05-23T20:52:43.398Z,100500.22
2023-05-23T20:55:10.897Z,100501.59
2023-05-23T20:57:37.666Z,100503.75
2023-05-23T21:00:11.186Z,100504.72
2023-05-23T21:02:38.692Z,100507.75
2023-05-23T21:05:09.593Z,100503.81
2023-05-23T21:07:36.249Z,100504.28
2023-05-23T21:10:03.354Z,100506.03
2023-05-23T21:12:29.931Z,100503.47
2023-05-23T21:14:59.428Z,100503.28
2023-05-23T21:17:26.277Z,100506.63
2023-05-23T21:19:53.131Z,100507.38
2023-05-23T21:22:19.758Z,100509.69
2023-05-23T21:24:47.194Z,100505.22
2023-05-23T21:27:13.952Z,100504.03
2023-05-23T21:29:40.695Z,100502.94
2023-05-23T21:32:07.612Z,100508.69
2023-05-23T21:34:34.415Z,100504.06
2023-05-23T21:37:01.002Z,100500.78
2023-05-23T21:39:39.217Z,100508.34
2023-05-23T21:42:09.995Z,100500.94
2023-05-23T21:44:38.289Z,100504.38
2023-05-23T21:47:06.861Z,100504.38
2023-05-23T21:49:35.332Z,100500.94
2023-05-23T21:52:02.497Z,100502.66
2023-05-23T21:54:29.050Z,100500.09
2023-05-23T21:56:55.648Z,100508.84
2023-05-23T21:59:22.454Z,100505.59
2023-05-23T22:01:49.002Z,100507.53
2023-05-23T22:04:19.066Z,100503.00
2023-05-23T22:06:46.077Z,100504.66
2023-05-23T22:09:14.450Z,100504.44
2023-05-23T22:11:41.690Z,100503.88
2023-05-23T22:14:08.605Z,100507.16
2023-05-23T22:16:41.336Z,100506.34
2023-05-23T22:19:09.886Z,100507.16
2023-05-23T22:21:36.830Z,100511.91
2023-05-23T22:24:03.706Z,100509.78
2023-05-23T22:26:30.271Z,100511.75
2023-05-23T22:28:56.877Z,100508.72
2023-05-23T22:31:24.163Z,100511.78
2023-05-23T22:33:51.180Z,100520.66
2023-05-23T22:36:17.823Z,100521.03
2023-05-23T22:38:44.536Z,100515.00
2023-05-23T22:41:11.568Z,100516.75
2023-05-23T22:43:38.249Z,100522.09
2023-05-23T22:46:04.784Z,100517.50
2023-05-23T22:48:33.720Z,100515.44
2023-05-23T22:51:02.204Z,100515.75
2023-05-23T22:53:29.381Z,100520.03
2023-05-23T22:55:56.060Z,100526.63
2023-05-23T22:58:22.560Z,100527.94
2023-05-23T23:00:49.033Z,100521.44
2023-05-23T23:03:16.063Z,100522.84
2023-05-23T23:05:42.792Z,100523.56
2023-05-23T23:08:09.354Z,100519.00
2023-05-23T23:10:35.907Z,100517.19
2023-05-23T23:13:02.347Z,100516.97
2023-05-23T23:15:30.123Z,100524.38
2023-05-23T23:17:56.640Z,100518.25
2023-05-23T23:20:23.321Z,100523.63
2023-05-23T23:22:49.793Z,100515.78
2023-05-23T23:25:18.760Z,100514.31
2023-05-23T23:27:45.253Z,100511.16
2023-05-23T23:30:12.226Z,100511.00
2023-05-23T23:32:38.726Z,100514.47
2023-05-23T23:35:05.682Z,100514.31
2023-05-23T23:37:32.099Z,100507.97
2023-05-23T23:39:58.573Z,100511.19
2023-05-23T23:42:25.005Z,100507.53
2023-05-23T23:44:51.644Z,100515.88
2023-05-23T23:47:18.051Z,100510.81
2023-05-23T23:49:44.463Z,100510.13
2023-05-23T23:52:10.931Z,100510.63
2023-05-23T23:54:37.366Z,100505.91
2023-05-23T23:57:04.053Z,100509.50
2023-05-23T23:59:30.477Z,100510.78
